Time;durP1;ratioP1;P1;durP2;ratioP2;P2;SDS_P1;SDS_P2;PMS_P1;PMS_P2;Temp;Humidity;BMP_temperature;BMP_pressure;BME280_temperature;BME280_humidity;BME280_pressure;Samples;Min_cycle;Max_cycle;Signal;HPM_P1;HPM_P2
2021/03/01 00:02:23;;;;;;;8.87;6.33;;;;;;;1.15;64.46;99507.91;5064400;28;20768;-73
2021/03/01 00:04:49;;;;;;;10.63;6.43;;;;;;;1.19;64.54;99505.41;5067601;28;20241;-74
2021/03/01 00:07:15;;;;;;;9.97;6.00;;;;;;;1.21;64.54;99506.31;5067426;28;20262;-73
2021/03/01 00:09:42;;;;;;;10.50;6.20;;;;;;;1.21;65.25;99506.31;5068860;28;20292;-75
2021/03/01 00:12:08;;;;;;;12.27;6.20;;;;;;;1.23;64.85;99502.97;5068861;28;20232;-73
2021/03/01 00:14:35;;;;;;;9.55;6.13;;;;;;;1.21;65.24;99507.16;5066893;28;20209;-74
2021/03/01 00:17:01;;;;;;;9.07;5.93;;;;;;;1.22;64.98;99506.34;5064289;28;20284;-74
2021/03/01 00:19:28;;;;;;;9.88;6.05;;;;;;;1.25;64.81;99508.09;5067770;28;20229;-74
2021/03/01 00:21:55;;;;;;;9.30;5.83;;;;;;;1.19;64.97;99508.00;5063139;28;20241;-74
2021/03/01 00:24:21;;;;;;;10.83;5.93;;;;;;;1.17;64.84;99510.53;5067994;28;20233;-73
2021/03/01 00:26:47;;;;;;;11.10;6.73;;;;;;;1.14;65.13;99502.78;5068543;28;20298;-75
2021/03/01 00:29:13;;;;;;;10.80;6.70;;;;;;;1.13;64.63;99506.16;5069247;28;20224;-73
2021/03/01 00:31:39;;;;;;;9.63;5.90;;;;;;;1.12;64.67;99506.97;5068360;28;20248;-75
2021/03/01 00:34:06;;;;;;;9.67;5.80;;;;;;;1.09;65.33;99504.38;5069378;28;20216;-74
2021/03/01 00:36:33;;;;;;;11.63;6.63;;;;;;;1.08;65.42;99510.31;5065793;28;20478;-73
2021/03/01 00:39:00;;;;;;;10.40;6.87;;;;;;;1.08;64.92;99502.63;5067294;28;20969;-74
2021/03/01 00:41:26;;;;;;;11.27;6.20;;;;;;;1.03;65.52;99507.69;5062696;28;20228;-73
2021/03/01 00:43:53;;;;;;;10.13;6.15;;;;;;;1.00;65.65;99501.59;5063429;28;20228;-75
2021/03/01 00:46:19;;;;;;;11.07;6.53;;;;;;;1.01;65.26;99499.06;5066206;28;20241;-74
2021/03/01 00:48:45;;;;;;;10.33;6.60;;;;;;;0.99;65.32;99505.00;5065258;28;20221;-73
2021/03/01 00:51:11;;;;;;;10.30;6.60;;;;;;;0.96;65.41;99501.53;5068941;28;20255;-73
2021/03/01 00:53:39;;;;;;;11.10;6.47;;;;;;;0.95;65.43;99504.91;5061515;28;20209;-75
2021/03/01 00:56:05;;;;;;;10.30;6.50;;;;;;;0.94;66.25;99492.94;5066603;28;20709;-74
2021/03/01 00:58:31;;;;;;;8.97;5.93;;;;;;;0.95;65.89;99489.50;5066775;28;20206;-74
2021/03/01 01:00:58;;;;;;;13.97;6.80;;;;;;;1.00;65.84;99496.47;5063339;28;21469;-73
2021/03/01 01:03:24;;;;;;;10.80;6.93;;;;;;;1.04;65.53;99499.13;5064271;28;20232;-75
2021/03/01 01:05:50;;;;;;;13.50;6.60;;;;;;;1.10;65.92;99498.38;5065918;28;20241;-74
2021/03/01 01:08:17;;;;;;;12.13;6.23;;;;;;;1.12;66.10;99497.59;5067063;28;20220;-73
2021/03/01 01:10:44;;;;;;;11.27;7.00;;;;;;;1.13;65.73;99491.59;5068564;28;20248;-73
2021/03/01 01:13:10;;;;;;;11.97;6.57;;;;;;;1.11;66.09;99494.97;5064467;28;20209;-75
2021/03/01 01:15:36;;;;;;;10.83;6.50;;;;;;;1.12;65.96;99495.03;5063883;28;20237;-73
2021/03/01 01:18:04;;;;;;;9.83;6.27;;;;;;;1.14;65.94;99489.91;5067341;28;20216;-73
2021/03/01 01:20:30;;;;;;;11.13;6.83;;;;;;;1.13;66.07;99488.16;5062204;28;20251;-74
2021/03/01 01:22:56;;;;;;;9.03;6.20;;;;;;;1.11;65.70;99485.56;5064376;28;20266;-75
2021/03/01 01:25:23;;;;;;;12.27;6.40;;;;;;;1.10;66.45;99483.84;5065207;28;20219;-74
2021/03/01 01:27:50;;;;;;;12.27;7.07;;;;;;;1.09;66.49;99481.25;5068205;28;20220;-74
2021/03/01 01:30:20;;;;;;;11.77;6.50;;;;;;;1.15;66.66;99489.06;5068100;28;20297;-73
2021/03/01 01:32:46;;;;;;;11.23;6.20;;;;;;;1.17;66.65;99479.69;5067501;28;20214;-75
2021/03/01 01:35:13;;;;;;;9.93;6.03;;;;;;;1.19;66.02;99488.28;5066879;28;20209;-74
2021/03/01 01:37:40;;;;;;;13.83;6.93;;;;;;;1.24;66.69;99489.25;5066873;28;20210;-74
2021/03/01 01:40:09;;;;;;;10.03;6.60;;;;;;;1.29;66.31;99474.78;5066290;28;20229;-75
2021/03/01 01:42:35;;;;;;;11.20;6.67;;;;;;;1.33;66.50;99475.72;5064225;28;20210;-74
2021/03/01 01:45:06;;;;;;;13.07;7.00;;;;;;;1.39;66.58;99474.97;5065359;28;20229;-74
2021/03/01 01:47:32;;;;;;;11.37;6.27;;;;;;;1.45;66.10;99469.94;5069131;28;20847;-75
2021/03/01 01:49:59;;;;;;;10.30;6.40;;;;;;;1.50;66.49;99476.91;5068929;28;20243;-74
2021/03/01 01:52:25;;;;;;;12.30;6.47;;;;;;;1.51;66.15;99470.06;5066602;28;20232;-73
2021/03/01 01:54:51;;;;;;;10.67;5.90;;;;;;;1.52;66.26;99474.38;5065651;28;20221;-74
2021/03/01 01:57:18;;;;;;;11.40;6.57;;;;;;;1.50;65.86;99469.19;5063118;28;20355;-74
2021/03/01 01:59:44;;;;;;;11.10;6.47;;;;;;;1.45;66.22;99459.66;5066238;28;20237;-75
2021/03/01 02:02:12;;;;;;;10.73;6.27;;;;;;;1.42;65.68;99467.34;5064459;28;20241;-74
2021/03/01 02:04:40;;;;;;;10.63;6.57;;;;;;;1.37;65.84;99466.38;5063697;28;20856;-74
2021/03/01 02:07:10;;;;;;;11.10;5.97;;;;;;;1.32;65.79;99458.56;5068834;28;20237;-74
2021/03/01 02:09:45;;;;;;;11.57;6.50;;;;;;;1.30;65.51;99468.81;5068349;28;20241;-75
2021/03/01 02:12:13;;;;;;;14.63;6.47;;;;;;;1.25;65.68;99457.59;5068445;28;20240;-74
2021/03/01 02:14:50;;;;;;;11.13;6.67;;;;;;;1.24;66.22;99453.25;5066844;28;20218;-75
2021/03/01 02:17:17;;;;;;;10.73;6.67;;;;;;;1.22;66.48;99457.50;5066849;28;20235;-75
2021/03/01 02:19:43;;;;;;;11.57;6.80;;;;;;;1.18;66.41;99450.59;5066262;28;20302;-73
2021/03/01 02:22:11;;;;;;;10.77;6.50;;;;;;;1.22;66.36;99457.50;5063903;28;20249;-73
2021/03/01 02:24:39;;;;;;;10.67;6.13;;;;;;;1.22;66.52;99447.22;5069540;28;20239;-73
2021/03/01 02:27:06;;;;;;;12.60;6.73;;;;;;;1.16;66.43;99452.25;5066406;28;20724;-74
2021/03/01 02:29:33;;;;;;;11.47;6.37;;;;;;;1.16;66.58;99441.97;5070769;28;20322;-73
2021/03/01 02:32:01;;;;;;;10.37;6.20;;;;;;;1.15;66.32;99450.50;5071982;28;20248;-74
2021/03/01 02:34:33;;;;;;;11.80;6.72;;;;;;;1.15;66.44;99445.38;5071942;28;20213;-74
2021/03/01 02:37:01;;;;;;;11.17;6.10;;;;;;;1.15;66.64;99451.38;5069970;28;20294;-75
2021/03/01 02:39:30;;;;;;;12.10;6.37;;;;;;;1.12;66.88;99450.44;5071077;28;20229;-74
2021/03/01 02:41:56;;;;;;;11.30;6.63;;;;;;;1.13;66.94;99447.06;5066287;28;20240;-75
2021/03/01 02:44:23;;;;;;;11.67;6.33;;;;;;;1.13;66.76;99453.03;5069610;28;20464;-73
2021/03/01 02:46:49;;;;;;;11.50;6.07;;;;;;;1.14;66.69;99459.06;5065015;28;20248;-74
2021/03/01 02:49:16;;;;;;;11.13;7.13;;;;;;;1.10;67.04;99453.00;5069941;28;20214;-75
2021/03/01 02:51:44;;;;;;;12.93;6.73;;;;;;;1.08;67.69;99454.66;5072053;28;20321;-75
2021/03/01 02:54:12;;;;;;;12.70;6.80;;;;;;;1.10;68.32;99446.97;5072702;28;20216;-75
2021/03/01 02:56:39;;;;;;;13.00;6.63;;;;;;;1.18;67.77;99454.84;5066869;28;20271;-75
2021/03/01 02:59:06;;;;;;;16.80;6.33;;;;;;;1.24;68.13;99455.84;5073440;28;20208;-74
2021/03/01 03:01:33;;;;;;;13.70;7.23;;;;;;;1.27;68.17;99445.63;5067998;28;20363;-73
2021/03/01 03:03:59;;;;;;;11.73;6.17;;;;;;;1.33;68.13;99450.00;5066886;28;20233;-75
2021/03/01 03:06:28;;;;;;;9.70;6.00;;;;;;;1.39;68.00;99454.41;5067282;28;20724;-74
2021/03/01 03:08:55;;;;;;;12.93;7.43;;;;;;;1.44;67.33;99452.78;5073393;28;20598;-74
2021/03/01 03:11:23;;;;;;;12.03;6.53;;;;;;;1.51;67.63;99454.66;5071713;28;20997;-74
2021/03/01 03:13:50;;;;;;;12.30;6.57;;;;;;;1.54;67.32;99455.56;5070352;28;20388;-74
2021/03/01 03:16:17;;;;;;;13.33;7.23;;;;;;;1.57;67.31;99449.59;5067009;28;20802;-74
2021/03/01 03:18:44;;;;;;;15.50;7.90;;;;;;;1.58;67.23;99451.34;5066734;28;20220;-73
2021/03/01 03:21:10;;;;;;;11.63;6.53;;;;;;;1.60;67.34;99459.06;5067217;28;20242;-73
2021/03/01 03:23:37;;;;;;;13.30;6.53;;;;;;;1.60;67.41;99457.38;5066158;28;20225;-75
2021/03/01 03:26:03;;;;;;;11.33;6.47;;;;;;;1.58;67.56;99456.50;5065263;28;20240;-74
2021/03/01 03:28:29;;;;;;;10.97;6.93;;;;;;;1.58;67.59;99461.63;5066629;28;20275;-73
2021/03/01 03:30:56;;;;;;;13.73;6.50;;;;;;;1.58;67.02;99466.78;5068656;28;20290;-75
2021/03/01 03:33:23;;;;;;;12.70;6.67;;;;;;;1.59;67.05;99468.50;5070673;28;20743;-75
2021/03/01 03:35:49;;;;;;;13.53;7.03;;;;;;;1.57;67.30;99471.91;5069156;28;20316;-74
2021/03/01 03:38:19;;;;;;;11.73;6.70;;;;;;;1.52;67.26;99469.22;5071526;28;20750;-73
2021/03/01 03:40:47;;;;;;;13.27;6.67;;;;;;;1.52;66.99;99476.94;5068884;28;20764;-74
2021/03/01 03:43:14;;;;;;;14.10;6.93;;;;;;;1.48;67.56;99475.16;5071817;28;20231;-74
2021/03/01 03:45:41;;;;;;;12.57;6.77;;;;;;;1.47;67.36;99470.84;5069641;28;20236;-74
2021/03/01 03:48:08;;;;;;;12.07;6.67;;;;;;;1.40;67.16;99479.25;5072553;28;21002;-74
2021/03/01 03:50:35;;;;;;;11.60;7.00;;;;;;;1.38;66.95;99480.94;5068146;28;20233;-73
2021/03/01 03:53:05;;;;;;;14.07;7.30;;;;;;;1.26;67.89;99474.72;5069761;28;20217;-74
2021/03/01 03:55:33;;;;;;;12.90;6.87;;;;;;;1.25;67.28;99473.00;5061464;28;20237;-73
2021/03/01 03:58:00;;;;;;;12.50;6.53;;;;;;;1.16;67.76;99472.81;5069587;28;20228;-73
2021/03/01 04:00:27;;;;;;;14.20;7.20;;;;;;;1.09;68.50;99478.66;5065680;28;20233;-75
2021/03/01 04:02:55;;;;;;;13.27;7.37;;;;;;;1.10;68.18;99472.69;5071037;28;20227;-74
2021/03/01 04:05:23;;;;;;;13.97;6.20;;;;;;;1.12;68.17;99473.56;5070289;28;20241;-74
2021/03/01 04:07:49;;;;;;;16.30;6.90;;;;;;;1.15;67.92;99471.06;5071821;28;20829;-73
2021/03/01 04:10:16;;;;;;;12.00;6.67;;;;;;;1.13;68.41;99467.59;5072049;28;20272;-73
2021/03/01 04:12:45;;;;;;;11.83;7.00;;;;;;;1.12;68.29;99471.00;5068638;28;20224;-75
2021/03/01 04:15:14;;;;;;;13.07;6.93;;;;;;;1.15;68.44;99468.50;5068524;28;20213;-74
2021/03/01 04:17:41;;;;;;;11.97;6.40;;;;;;;1.16;68.22;99462.53;5069663;28;21294;-75
2021/03/01 04:20:10;;;;;;;14.33;6.77;;;;;;;1.18;68.06;99463.44;5071338;28;20241;-74
2021/03/01 04:22:38;;;;;;;12.03;6.67;;;;;;;1.15;68.64;99463.38;5070523;28;20627;-74
2021/03/01 04:25:06;;;;;;;13.27;7.30;;;;;;;1.10;68.63;99473.56;5071682;28;20733;-73
2021/03/01 04:27:33;;;;;;;12.57;6.40;;;;;;;1.12;67.95;99471.00;5049746;28;20735;-73
2021/03/01 04:30:00;;;;;;;10.80;6.43;;;;;;;1.08;68.23;99470.06;5052384;28;20430;-75
2021/03/01 04:32:27;;;;;;;12.03;7.00;;;;;;;1.01;68.89;99472.47;5045993;28;20718;-75
2021/03/01 04:34:53;;;;;;;15.83;6.93;;;;;;;0.91;68.41;99462.00;5049223;28;20222;-75
2021/03/01 04:37:20;;;;;;;15.80;7.23;;;;;;;0.89;68.27;99465.41;5046484;28;20796;-75
2021/03/01 04:39:47;;;;;;;13.03;6.97;;;;;;;0.87;68.43;99464.50;5049779;28;21038;-74
2021/03/01 04:42:13;;;;;;;13.50;6.60;;;;;;;0.82;68.94;99466.09;5047976;28;20725;-75
2021/03/01 04:44:40;;;;;;;14.00;7.30;;;;;;;0.79;69.05;99469.47;5047078;28;20252;-76
2021/03/01 04:47:08;;;;;;;10.43;6.30;;;;;;;0.84;69.08;99460.16;5049274;28;20248;-74
2021/03/01 04:49:34;;;;;;;12.63;6.33;;;;;;;0.76;69.30;99465.13;5047487;28;20312;-75
2021/03/01 04:52:01;;;;;;;13.67;6.67;;;;;;;0.79;69.29;99459.22;5047342;28;20242;-74
2021/03/01 04:54:27;;;;;;;12.97;7.00;;;;;;;0.86;68.39;99461.03;5048297;28;20224;-74
2021/03/01 04:56:54;;;;;;;13.23;7.43;;;;;;;0.89;69.02;99453.41;5046111;28;20233;-73
2021/03/01 04:59:21;;;;;;;14.67;7.43;;;;;;;0.93;68.48;99456.91;5048403;28;20221;-75
2021/03/01 05:01:49;;;;;;;11.73;6.70;;;;;;;0.92;68.16;99453.50;5047662;28;20237;-74
2021/03/01 05:04:16;;;;;;;12.20;7.00;;;;;;;0.90;67.88;99456.84;5048636;28;20290;-73
2021/03/01 05:06:42;;;;;;;14.07;7.30;;;;;;;0.88;68.14;99461.97;5046759;28;20245;-73
2021/03/01 05:09:08;;;;;;;14.53;7.63;;;;;;;0.87;68.62;99461.94;5049494;28;20622;-73
2021/03/01 05:11:36;;;;;;;12.00;6.60;;;;;;;0.79;68.10;99456.63;5044936;28;20238;-73
2021/03/01 05:14:04;;;;;;;13.97;7.23;;;;;;;0.63;68.77;99457.13;5050203;28;20225;-77
2021/03/01 05:16:30;;;;;;;13.20;7.07;;;;;;;0.50;68.85;99454.28;5046799;28;20256;-74
2021/03/01 05:18:57;;;;;;;12.53;6.47;;;;;;;0.39;70.05;99460.88;5047405;28;20210;-75
2021/03/01 05:21:24;;;;;;;13.83;7.10;;;;;;;0.39;69.33;99453.19;5047851;28;20241;-74
2021/03/01 05:23:50;;;;;;;12.03;7.20;;;;;;;0.39;68.70;99450.59;5040567;28;20464;-75
2021/03/01 05:26:17;;;;;;;13.27;7.43;;;;;;;0.41;68.86;99451.50;5047073;28;20238;-74
2021/03/01 05:28:43;;;;;;;12.83;7.53;;;;;;;0.38;68.66;99454.00;5049059;28;20210;-74
2021/03/01 05:31:10;;;;;;;11.87;6.87;;;;;;;0.35;68.58;99464.19;5046726;28;20246;-73
2021/03/01 05:33:37;;;;;;;12.10;6.80;;;;;;;0.30;68.42;99460.66;5045982;28;20225;-74
2021/03/01 05:36:03;;;;;;;12.93;6.53;;;;;;;0.30;69.18;99461.53;5047004;28;20249;-74
2021/03/01 05:38:30;;;;;;;13.10;6.77;;;;;;;0.29;68.65;99454.63;5045542;28;20870;-73
2021/03/01 05:40:57;;;;;;;14.13;7.43;;;;;;;0.31;68.79;99462.38;5046106;28;20241;-72
2021/03/01 05:43:26;;;;;;;12.23;6.97;;;;;;;0.31;68.52;99465.84;5045045;28;20225;-71
2021/03/01 05:45:53;;;;;;;13.60;7.80;;;;;;;0.28;68.46;99463.19;5038998;28;20234;-73
2021/03/01 05:48:21;;;;;;;13.80;6.97;;;;;;;0.22;68.51;99467.28;5047990;28;20214;-73
2021/03/01 05:50:53;;;;;;;11.37;6.67;;;;;;;0.21;68.54;99470.72;5046427;28;20234;-73
2021/03/01 05:53:23;;;;;;;13.47;6.73;;;;;;;0.14;69.07;99469.69;5047886;28;20217;-74
2021/03/01 05:55:50;;;;;;;13.37;7.57;;;;;;;0.15;68.77;99472.28;5042324;28;20380;-74
2021/03/01 05:58:17;;;;;;;13.77;7.00;;;;;;;0.15;69.13;99472.28;5048466;28;20218;-75
2021/03/01 06:00:44;;;;;;;15.03;7.40;;;;;;;0.16;68.96;99479.13;5049386;28;20242;-75
2021/03/01 06:03:10;;;;;;;12.67;6.97;;;;;;;0.16;68.69;99476.56;5041950;28;20222;-75
2021/03/01 06:05:37;;;;;;;12.80;7.03;;;;;;;0.16;68.90;99483.41;5050894;28;20241;-74
2021/03/01 06:08:05;;;;;;;13.57;7.00;;;;;;;0.12;68.92;99482.47;5054505;28;20206;-75
2021/03/01 06:10:32;;;;;;;11.93;6.80;;;;;;;0.11;68.81;99480.75;5049314;28;20230;-75
2021/03/01 06:12:58;;;;;;;13.83;6.83;;;;;;;0.11;68.70;99491.00;5054652;28;20220;-74
2021/03/01 06:15:27;;;;;;;18.47;7.57;;;;;;;0.13;68.66;99493.59;5052259;28;20213;-80
2021/03/01 06:18:09;;;;;;;16.03;7.77;;;;;;;0.17;68.49;99488.59;5052491;28;20218;-76
2021/03/01 06:20:38;;;;;;;12.00;6.40;;;;;;;0.18;69.12;99498.03;5048232;28;20238;-75
2021/03/01 06:23:06;;;;;;;14.47;7.27;;;;;;;0.23;69.05;99494.72;5049515;28;20210;-74
2021/03/01 06:25:33;;;;;;;14.00;7.03;;;;;;;0.18;69.66;99498.03;5046804;28;20256;-75
2021/03/01 06:28:01;;;;;;;11.87;6.40;;;;;;;0.25;69.74;99503.31;5043969;28;20229;-76
2021/03/01 06:30:29;;;;;;;13.83;6.90;;;;;;;0.42;68.84;99507.13;5052389;28;21076;-75
2021/03/01 06:33:12;;;;;;;15.20;7.53;;;;;;;0.60;68.85;99506.69;5054501;28;20217;-75
2021/03/01 06:35:42;;;;;;;14.33;7.27;;;;;;;0.75;68.28;99517.34;5052657;28;20233;-75
2021/03/01 06:38:30;;;;;;;14.90;7.80;;;;;;;0.90;68.64;99523.63;5053603;28;20256;-75
2021/03/01 06:41:16;;;;;;;14.53;7.33;;;;;;;0.98;68.96;99524.69;5048841;28;20237;-75
2021/03/01 06:43:53;;;;;;;15.33;7.73;;;;;;;0.93;68.25;99524.56;5049911;28;20965;-77
2021/03/01 06:46:20;;;;;;;16.03;7.80;;;;;;;0.96;68.25;99527.22;5048139;28;20245;-76
2021/03/01 06:48:46;;;;;;;15.90;8.53;;;;;;;1.05;68.66;99520.53;5051047;28;20218;-76
2021/03/01 06:51:13;;;;;;;14.63;7.87;;;;;;;1.03;69.29;99523.09;5049852;28;20245;-76
2021/03/01 06:53:40;;;;;;;19.57;8.80;;;;;;;1.06;68.77;99527.41;5044803;28;20214;-77
2021/03/01 06:56:07;;;;;;;15.80;8.73;;;;;;;1.04;69.87;99531.66;5049054;28;20295;-77
2021/03/01 06:58:38;;;;;;;16.53;8.43;;;;;;;1.08;69.89;99531.75;5052391;28;20214;-76
2021/03/01 07:01:13;;;;;;;17.87;8.50;;;;;;;1.19;69.50;99537.13;5050722;28;21112;-76
2021/03/01 07:03:41;;;;;;;17.37;8.90;;;;;;;1.26;69.21;99536.41;5048314;28;20220;-75
2021/03/01 07:06:08;;;;;;;18.47;8.27;;;;;;;1.37;69.41;99533.22;5052499;28;20284;-75
2021/03/01 07:08:44;;;;;;;17.67;9.17;;;;;;;1.46;69.19;99534.25;5050941;28;20231;-74
2021/03/01 07:11:25;;;;;;;17.87;8.70;;;;;;;1.56;68.74;99545.59;5043891;28;20628;-77
2021/03/01 07:13:53;;;;;;;14.63;8.27;;;;;;;1.64;68.70;99541.47;5053640;28;20225;-76
2021/03/01 07:16:19;;;;;;;15.87;8.33;;;;;;;1.73;69.15;99544.22;5050162;28;20267;-75
2021/03/01 07:18:46;;;;;;;13.73;8.03;;;;;;;1.77;69.52;99541.72;5049339;28;20303;-75
2021/03/01 07:21:14;;;;;;;16.40;8.23;;;;;;;1.88;69.06;99547.94;5048291;28;20241;-76
2021/03/01 07:23:43;;;;;;;16.43;8.30;;;;;;;1.96;68.82;99535.22;5051538;28;20218;-76
2021/03/01 07:26:10;;;;;;;17.63;8.73;;;;;;;2.05;68.41;99543.09;5049668;28;20765;-76
2021/03/01 07:28:41;;;;;;;20.23;8.70;;;;;;;2.10;68.53;99544.91;5049290;28;20210;-76
2021/03/01 07:31:09;;;;;;;15.93;8.63;;;;;;;2.18;68.36;99546.75;5052272;28;20245;-76
2021/03/01 07:33:36;;;;;;;16.00;8.33;;;;;;;2.25;68.21;99546.03;5050617;28;20214;-76
2021/03/01 07:36:03;;;;;;;13.80;8.23;;;;;;;2.30;67.91;99536.69;5050373;28;20248;-76
2021/03/01 07:38:30;;;;;;;16.13;8.47;;;;;;;2.37;67.90;99533.38;5050352;28;20214;-77
2021/03/01 07:40:57;;;;;;;17.42;9.10;;;;;;;2.43;67.90;99541.19;5047489;28;20241;-77
2021/03/01 07:43:24;;;;;;;17.20;8.27;;;;;;;2.48;67.96;99536.97;5049047;28;20229;-77
2021/03/01 07:45:50;;;;;;;16.73;7.95;;;;;;;2.58;67.57;99542.28;5050356;28;20241;-76
2021/03/01 07:48:17;;;;;;;15.95;8.45;;;;;;;2.67;67.95;99547.56;5050235;28;20249;-77
2021/03/01 07:50:47;;;;;;;17.80;8.40;;;;;;;2.73;68.08;99545.06;5049623;28;20245;-76
2021/03/01 07:53:45;;;;;;;21.57;9.40;;;;;;;2.84;68.46;99540.09;5051188;28;20218;-77
2021/03/01 07:56:45;;;;;;;19.00;9.03;;;;;;;2.98;68.71;99553.16;5045834;28;20344;-76
2021/03/01 07:59:12;;;;;;;16.90;9.48;;;;;;;3.11;68.59;99557.69;5036814;28;20217;-76
2021/03/01 08:01:39;;;;;;;19.13;9.27;;;;;;;3.26;68.67;99557.00;5043662;28;20237;-75
2021/03/01 08:04:06;;;;;;;19.67;9.73;;;;;;;3.38;68.39;99553.72;5052621;28;20667;-74
2021/03/01 08:06:54;;;;;;;17.52;8.88;;;;;;;3.61;68.64;99561.75;5047562;28;20615;-76
2021/03/01 08:09:41;;;;;;;17.55;9.35;;;;;;;3.78;67.91;99554.19;5052034;28;20222;-76
2021/03/01 08:12:12;;;;;;;19.95;10.07;;;;;;;3.91;67.76;99556.06;5047160;28;20234;-75
2021/03/01 08:14:58;;;;;;;16.55;9.38;;;;;;;4.14;66.92;99556.31;5043703;28;20706;-76
2021/03/01 08:17:32;;;;;;;18.85;9.77;;;;;;;4.24;67.12;99559.84;5047589;28;20276;-76
2021/03/01 08:20:00;;;;;;;19.10;9.50;;;;;;;4.31;67.03;99556.47;5051627;28;20229;-75
2021/03/01 08:22:27;;;;;;;19.65;10.35;;;;;;;4.49;66.61;99555.78;5051316;28;20238;-76
2021/03/01 08:24:54;;;;;;;18.95;9.70;;;;;;;4.65;66.43;99556.78;5049285;28;20232;-74
2021/03/01 08:27:40;;;;;;;19.23;10.13;;;;;;;4.81;65.92;99563.75;5045512;28;20782;-75
2021/03/01 08:30:21;;;;;;;20.75;10.15;;;;;;;4.96;65.49;99556.97;5050325;28;20241;-77
2021/03/01 08:33:22;;;;;;;19.83;9.95;;;;;;;5.14;65.26;99559.66;5046488;28;20274;-75
2021/03/01 08:35:49;;;;;;;22.27;10.75;;;;;;;5.28;65.00;99556.31;5050807;28;20752;-75
2021/03/01 08:38:17;;;;;;;18.83;10.02;;;;;;;5.34;64.62;99556.34;5052565;28;20328;-76
2021/03/01 08:40:53;;;;;;;16.88;10.30;;;;;;;5.56;64.33;99554.72;5048144;28;20242;-75
2021/03/01 08:43:31;;;;;;;19.20;10.32;;;;;;;5.67;64.04;99553.03;5042235;28;20228;-75
2021/03/01 08:45:58;;;;;;;19.23;10.32;;;;;;;5.75;63.90;99545.28;5048932;28;20252;-75
2021/03/01 08:48:24;;;;;;;17.33;9.88;;;;;;;5.86;63.75;99548.75;5049056;28;20217;-76
2021/03/01 08:50:52;;;;;;;21.83;10.15;;;;;;;5.96;63.28;99550.56;5046473;28;21040;-76
2021/03/01 08:53:21;;;;;;;17.83;9.70;;;;;;;6.05;63.01;99554.06;5050562;28;20221;-76
2021/03/01 08:55:48;;;;;;;19.60;10.52;;;;;;;6.14;62.91;99543.69;5046801;28;20341;-77
2021/03/01 08:58:14;;;;;;;21.00;10.48;;;;;;;6.32;62.95;99548.03;5048056;28;20218;-76
2021/03/01 09:00:50;;;;;;;17.90;10.15;;;;;;;6.46;62.21;99542.88;5046414;28;21290;-75
2021/03/01 09:03:18;;;;;;;17.20;9.32;;;;;;;6.52;62.36;99545.44;5042395;28;20581;-76
2021/03/01 09:05:47;;;;;;;19.92;10.35;;;;;;;6.63;61.78;99548.91;5047274;28;20246;-76
2021/03/01 09:08:14;;;;;;;20.95;9.70;;;;;;;6.77;61.42;99546.31;5047524;28;20221;-76
2021/03/01 09:10:43;;;;;;;17.35;9.45;;;;;;;6.84;60.80;99542.00;5047762;28;20273;-78
2021/03/01 09:13:15;;;;;;;16.27;9.15;;;;;;;7.00;61.18;99537.63;5050801;28;20245;-76
2021/03/01 09:15:41;;;;;;;18.52;10.15;;;;;;;7.09;60.43;99543.66;5048067;28;20302;-76
2021/03/01 09:18:09;;;;;;;16.75;9.45;;;;;;;7.28;60.35;99534.09;5046575;28;20724;-75
2021/03/01 09:21:00;;;;;;;19.48;10.40;;;;;;;7.42;59.89;99531.44;5044478;28;20238;-75
2021/03/01 09:23:39;;;;;;;16.48;9.00;;;;;;;7.53;59.48;99529.69;5045168;28;20245;-76
2021/03/01 09:26:06;;;;;;;18.50;9.82;;;;;;;7.64;59.25;99526.16;5046546;28;20241;-75
2021/03/01 09:28:34;;;;;;;16.55;9.20;;;;;;;7.79;59.29;99528.69;5040760;28;20213;-76
2021/03/01 09:31:02;;;;;;;16.13;9.15;;;;;;;7.89;59.11;99527.78;5047340;28;20327;-78
2021/03/01 09:33:29;;;;;;;16.08;9.25;;;;;;;7.98;58.00;99526.00;5048046;28;20648;-75
2021/03/01 09:35:56;;;;;;;16.02;8.02;;;;;;;8.06;58.04;99524.22;5045917;28;20329;-76
2021/03/01 09:38:22;;;;;;;18.38;9.15;;;;;;;8.25;58.56;99525.81;5045034;28;20270;-76
2021/03/01 09:40:56;;;;;;;17.75;9.10;;;;;;;8.38;57.35;99520.50;5046374;28;20256;-75
2021/03/01 09:43:23;;;;;;;15.35;8.65;;;;;;;8.54;57.50;99516.94;5047077;28;20233;-75
2021/03/01 09:45:50;;;;;;;17.45;8.90;;;;;;;8.65;57.00;99512.50;5047904;28;20627;-75
2021/03/01 09:48:17;;;;;;;16.73;9.30;;;;;;;8.76;56.35;99517.63;5046737;28;20221;-76
2021/03/01 09:50:44;;;;;;;15.15;9.15;;;;;;;8.92;56.51;99518.34;5047564;28;20246;-78
2021/03/01 09:53:10;;;;;;;14.75;8.40;;;;;;;9.05;56.00;99514.72;5046284;28;20282;-75
2021/03/01 09:55:37;;;;;;;14.43;8.20;;;;;;;9.14;55.44;99512.91;5045467;28;20241;-76
2021/03/01 09:58:21;;;;;;;13.88;8.07;;;;;;;9.41;55.63;99517.81;5045776;28;20222;-76
2021/03/01 10:00:47;;;;;;;13.13;7.88;;;;;;;9.55;54.97;99517.63;5046156;28;20238;-72
2021/03/01 10:03:13;;;;;;;14.63;8.10;;;;;;;9.75;54.34;99512.16;5048254;28;20275;-73
2021/03/01 10:05:48;;;;;;;13.70;8.27;;;;;;;10.01;53.84;99511.78;5041006;28;20234;-75
2021/03/01 10:08:19;;;;;;;14.10;8.05;;;;;;;10.30;53.43;99504.41;5047534;28;20339;-73
2021/03/01 10:10:46;;;;;;;17.58;8.27;;;;;;;10.55;52.74;99505.78;5048720;28;20265;-72
2021/03/01 10:13:12;;;;;;;13.25;7.85;;;;;;;10.84;52.25;99504.38;5048022;28;20914;-75
2021/03/01 10:15:45;;;;;;;13.45;7.32;;;;;;;11.21;51.54;99502.84;5045869;28;20234;-74
2021/03/01 10:18:12;;;;;;;14.90;7.57;;;;;;;11.45;50.62;99491.03;5047740;28;20927;-74
2021/03/01 10:20:55;;;;;;;12.10;7.53;;;;;;;11.94;48.19;99498.72;5044036;28;20242;-74
2021/03/01 10:23:32;;;;;;;12.38;7.55;;;;;;;12.47;48.86;99493.09;5048822;28;20217;-72
2021/03/01 10:26:08;;;;;;;13.13;7.60;;;;;;;12.92;48.04;99482.34;5045323;28;20244;-74
2021/03/01 10:28:36;;;;;;;13.23;7.82;;;;;;;13.55;46.35;99490.25;5041783;28;20214;-75
2021/03/01 10:31:04;;;;;;;13.15;7.53;;;;;;;14.07;45.67;99493.88;5044312;28;20248;-74
2021/03/01 10:33:31;;;;;;;11.98;6.90;;;;;;;14.39;44.87;99499.00;5046794;28;20222;-73
2021/03/01 10:36:08;;;;;;;10.32;6.82;;;;;;;14.74;44.32;99495.25;5048090;28;20316;-76
2021/03/01 10:38:55;;;;;;;11.80;6.90;;;;;;;14.83;41.94;99489.69;5048337;28;20275;-74
2021/03/01 10:41:22;;;;;;;11.48;7.25;;;;;;;17.37;40.43;99491.97;5046789;28;20253;-75
2021/03/01 10:43:53;;;;;;;9.93;6.78;;;;;;;20.80;35.93;99475.97;5048822;28;20226;-74
2021/03/01 10:46:40;;;;;;;9.52;7.03;;;;;;;23.72;32.71;99476.44;5046865;28;20518;-76
2021/03/01 10:49:24;;;;;;;10.00;7.30;;;;;;;25.85;29.65;99482.56;5048379;28;20225;-75
2021/03/01 10:51:52;;;;;;;9.52;6.75;;;;;;;27.42;27.02;99477.47;5050128;28;20269;-74
2021/03/01 10:54:19;;;;;;;9.40;7.03;;;;;;;27.80;25.34;99476.75;5052000;28;20301;-75
2021/03/01 10:56:45;;;;;;;8.30;6.82;;;;;;;29.19;24.81;99472.16;5047659;28;20325;-75
2021/03/01 10:59:11;;;;;;;9.07;7.45;;;;;;;30.79;23.19;99472.56;5052735;28;20303;-74
2021/03/01 11:01:39;;;;;;;10.15;7.80;;;;;;;31.81;21.77;99468.25;5048625;28;20293;-74
2021/03/01 11:04:06;;;;;;;8.02;7.13;;;;;;;32.94;20.62;99459.63;5053280;28;20217;-74
2021/03/01 11:06:32;;;;;;;7.60;6.75;;;;;;;33.66;19.39;99457.94;5048594;28;20234;-74
2021/03/01 11:09:00;;;;;;;7.63;6.30;;;;;;;34.07;18.91;99455.81;5048722;28;20214;-75
2021/03/01 11:11:26;;;;;;;8.18;7.32;;;;;;;34.61;18.46;99457.66;5046004;28;20739;-76
2021/03/01 11:13:53;;;;;;;8.88;7.10;;;;;;;35.03;17.80;99455.41;5047602;28;20745;-74
2021/03/01 11:16:19;;;;;;;7.63;6.82;;;;;;;35.23;17.32;99442.16;5047463;28;20233;-75
2021/03/01 11:18:46;;;;;;;8.40;7.40;;;;;;;34.59;17.06;99442.59;5049330;28;20220;-75
2021/03/01 11:21:12;;;;;;;7.65;6.90;;;;;;;34.28;16.73;99430.84;5050491;28;20245;-76
2021/03/01 11:23:39;;;;;;;7.75;6.88;;;;;;;34.80;16.63;99433.81;5049722;28;20239;-77
2021/03/01 11:26:06;;;;;;;8.68;7.20;;;;;;;35.05;16.94;99421.66;5047715;28;20279;-75
2021/03/01 11:28:32;;;;;;;7.43;6.40;;;;;;;35.55;16.11;99426.50;5049179;28;20218;-74
2021/03/01 11:30:58;;;;;;;8.00;7.18;;;;;;;35.73;16.26;99426.97;5048284;28;20850;-74
2021/03/01 11:33:25;;;;;;;6.68;6.05;;;;;;;35.94;16.02;99426.16;5049059;28;20274;-76
2021/03/01 11:35:53;;;;;;;6.97;6.32;;;;;;;36.43;15.67;99419.13;5049316;28;20238;-75
2021/03/01 11:38:20;;;;;;;7.15;6.35;;;;;;;36.21;15.71;99427.31;5048569;28;20695;-75
2021/03/01 11:40:46;;;;;;;7.53;6.82;;;;;;;35.44;15.75;99419.69;5048843;28;20860;-75